Time;durP1;ratioP1;P1;durP2;ratioP2;P2;SDS_P1;SDS_P2;PMS_P1;PMS_P2;Temp;Humidity;BMP_temperature;BMP_pressure;BME280_temperature;BME280_humidity;BME280_pressure;Samples;Min_cycle;Max_cycle;Signal;HPM_P1;HPM_P2
2022/09/15 00:01:21;;;;;;;7.70;3.78;;;;;;;;;;5053638;28;20243;-66
2022/09/15 00:03:47;;;;;;;5.30;3.30;;;;;;;;;;5046580;28;20189;-65
2022/09/15 00:06:14;;;;;;;3.92;3.25;;;;;;;;;;5047207;28;20457;-65
2022/09/15 00:08:40;;;;;;;7.00;3.55;;;;;;;;;;5044000;28;20205;-65
2022/09/15 00:11:10;;;;;;;5.50;3.17;;;;;;;;;;5053741;28;20215;-65
2022/09/15 00:13:37;;;;;;;4.20;3.45;;;;;;;;;;5050434;28;20185;-65
2022/09/15 00:16:04;;;;;;;6.03;3.67;;;;;;;;;;5043635;28;20221;-66
2022/09/15 00:18:30;;;;;;;6.50;3.28;;;;;;;;;;5041675;28;20584;-66
2022/09/15 00:20:56;;;;;;;6.65;3.20;;;;;;;;;;5048181;28;20169;-66
2022/09/15 00:23:21;;;;;;;5.78;3.20;;;;;;;;;;5043496;28;20625;-67
2022/09/15 00:25:48;;;;;;;7.60;3.10;;;;;;;;;;5046485;28;20225;-66
2022/09/15 00:28:16;;;;;;;6.63;3.08;;;;;;;;;;5037024;28;20314;-65
2022/09/15 00:30:49;;;;;;;7.47;2.80;;;;;;;;;;5046217;28;20177;-65
2022/09/15 00:33:15;;;;;;;5.60;2.80;;;;;;;;;;5038298;28;20212;-66
2022/09/15 00:35:52;;;;;;;7.63;2.58;;;;;;;;;;5051936;28;20321;-66
2022/09/15 00:38:18;;;;;;;4.95;2.45;;;;;;;;;;5046109;28;20654;-66
2022/09/15 00:40:45;;;;;;;3.90;2.42;;;;;;;;;;5028440;28;20279;-66
2022/09/15 00:43:12;;;;;;;5.88;3.03;;;;;;;;;;5038872;28;20264;-66
2022/09/15 00:45:37;;;;;;;10.23;3.38;;;;;;;;;;5055451;28;20186;-66
2022/09/15 00:48:04;;;;;;;10.30;3.35;;;;;;;;;;5036517;28;20204;-66
2022/09/15 00:50:31;;;;;;;7.15;3.28;;;;;;;;;;5048284;28;20189;-66
2022/09/15 00:53:00;;;;;;;6.82;3.03;;;;;;;;;;5050865;28;20782;-66
2022/09/15 00:55:31;;;;;;;7.13;2.58;;;;;;;;;;5048829;28;20181;-66
2022/09/15 00:58:10;;;;;;;5.10;2.10;;;;;;;;;;5050431;28;20298;-65
2022/09/15 01:00:38;;;;;;;5.07;2.95;;;;;;;;;;5052798;28;20196;-66
2022/09/15 01:03:04;;;;;;;4.25;2.53;;;;;;;;;;5043719;28;20256;-66
2022/09/15 01:05:35;;;;;;;5.30;2.22;;;;;;;;;;5042310;28;20342;-66
2022/09/15 01:08:06;;;;;;;8.77;2.30;;;;;;;;;;5051048;28;20177;-67
2022/09/15 01:10:38;;;;;;;3.33;2.20;;;;;;;;;;5047012;28;20678;-65
2022/09/15 01:13:09;;;;;;;3.72;1.90;;;;;;;;;;5045712;28;20193;-65
2022/09/15 01:15:45;;;;;;;3.50;2.05;;;;;;;;;;5044265;28;20173;-66
2022/09/15 01:18:20;;;;;;;3.88;2.10;;;;;;;;;;5046939;28;20219;-65
2022/09/15 01:21:04;;;;;;;4.38;2.30;;;;;;;;;;5041423;28;20243;-66
2022/09/15 01:23:58;;;;;;;4.05;2.40;;;;;;;;;;5041231;28;20181;-66
2022/09/15 01:26:51;;;;;;;3.20;1.90;;;;;;;;;;5032778;28;20233;-65
2022/09/15 01:29:41;;;;;;;4.38;2.08;;;;;;;;;;5048959;28;20585;-65
2022/09/15 01:35:34;;;;;;;6.60;2.53;;;;;;;;;;5037461;28;20264;-66
2022/09/15 01:38:03;;;;;;;8.77;2.67;;;;;;;;;;5039041;28;20209;-65
2022/09/15 01:40:34;;;;;;;3.65;2.33;;;;;;;;;;5038621;28;20193;-66
2022/09/15 01:43:00;;;;;;;6.32;2.63;;;;;;;;;;5048302;28;20634;-65
2022/09/15 01:45:29;;;;;;;5.40;2.72;;;;;;;;;;5050590;28;20327;-66
2022/09/15 01:47:57;;;;;;;3.88;3.13;;;;;;;;;;5054665;28;20185;-66
2022/09/15 01:50:27;;;;;;;6.10;2.95;;;;;;;;;;5039178;28;21771;-66
2022/09/15 01:52:56;;;;;;;5.07;3.08;;;;;;;;;;5050300;28;20251;-66
2022/09/15 01:55:28;;;;;;;5.03;2.75;;;;;;;;;;5045119;28;20189;-66
2022/09/15 01:57:53;;;;;;;3.85;2.67;;;;;;;;;;5031013;28;20190;-66
2022/09/15 02:00:19;;;;;;;6.93;3.00;;;;;;;;;;5043909;28;20185;-66
2022/09/15 02:02:53;;;;;;;6.60;2.60;;;;;;;;;;5049745;28;20178;-66
2022/09/15 02:05:29;;;;;;;4.53;2.80;;;;;;;;;;5062092;28;20230;-65
2022/09/15 02:08:18;;;;;;;5.97;2.78;;;;;;;;;;5042822;28;20185;-65
2022/09/15 02:10:50;;;;;;;5.70;2.70;;;;;;;;;;5050905;28;20539;-64
2022/09/15 02:13:24;;;;;;;6.07;3.00;;;;;;;;;;5044070;28;20192;-65
2022/09/15 02:15:57;;;;;;;5.97;2.83;;;;;;;;;;5044250;28;20284;-65
2022/09/15 02:18:36;;;;;;;6.72;3.38;;;;;;;;;;5052029;28;20189;-65
2022/09/15 02:21:11;;;;;;;6.00;2.92;;;;;;;;;;5043660;28;20263;-65
2022/09/15 02:23:44;;;;;;;6.20;3.10;;;;;;;;;;5048364;28;20283;-66
2022/09/15 02:26:13;;;;;;;7.03;3.03;;;;;;;;;;5040746;28;20241;-65
2022/09/15 02:28:41;;;;;;;6.00;2.88;;;;;;;;;;5046349;28;20197;-65
2022/09/15 02:31:10;;;;;;;3.97;3.00;;;;;;;;;;5046804;28;20181;-66
2022/09/15 02:33:41;;;;;;;9.45;3.33;;;;;;;;;;5046528;28;20200;-66
2022/09/15 02:36:09;;;;;;;7.50;2.90;;;;;;;;;;5047951;28;20228;-66
2022/09/15 02:38:40;;;;;;;4.07;2.63;;;;;;;;;;5038937;28;20185;-66
2022/09/15 02:41:06;;;;;;;6.72;2.72;;;;;;;;;;5045557;28;20562;-66
2022/09/15 02:43:32;;;;;;;5.72;2.80;;;;;;;;;;5040313;28;20247;-66
2022/09/15 02:45:58;;;;;;;7.20;2.88;;;;;;;;;;5048824;28;20543;-66
2022/09/15 02:48:24;;;;;;;6.50;3.25;;;;;;;;;;5043120;28;20201;-66
2022/09/15 02:50:50;;;;;;;7.43;2.80;;;;;;;;;;5045365;28;20216;-66
2022/09/15 02:53:15;;;;;;;7.93;2.72;;;;;;;;;;5043899;28;20220;-66
2022/09/15 02:55:40;;;;;;;5.18;2.95;;;;;;;;;;5045949;28;20192;-66
2022/09/15 02:58:06;;;;;;;6.32;2.80;;;;;;;;;;5040168;28;20181;-66
2022/09/15 03:00:31;;;;;;;6.20;3.10;;;;;;;;;;5048534;28;20264;-66
2022/09/15 03:02:57;;;;;;;4.22;2.97;;;;;;;;;;5046188;28;20311;-65
2022/09/15 03:05:28;;;;;;;6.35;3.22;;;;;;;;;;5046580;28;20243;-66
2022/09/15 03:07:54;;;;;;;6.75;3.58;;;;;;;;;;5046685;28;20180;-66
2022/09/15 03:10:20;;;;;;;6.03;3.05;;;;;;;;;;5036669;28;20335;-66
2022/09/15 03:12:48;;;;;;;6.85;3.63;;;;;;;;;;5039908;28;20600;-65
2022/09/15 03:15:16;;;;;;;6.72;3.28;;;;;;;;;;5049090;28;20200;-65
2022/09/15 03:17:43;;;;;;;6.97;3.92;;;;;;;;;;5041214;28;20244;-65
2022/09/15 03:20:11;;;;;;;5.57;3.63;;;;;;;;;;5033137;28;20182;-66
2022/09/15 03:22:38;;;;;;;5.35;3.72;;;;;;;;;;5042866;28;20196;-66
2022/09/15 03:25:05;;;;;;;6.80;4.13;;;;;;;;;;5040604;28;20181;-66
2022/09/15 03:27:31;;;;;;;10.18;4.70;;;;;;;;;;5048583;28;20272;-66
2022/09/15 03:29:56;;;;;;;7.18;4.03;;;;;;;;;;5046318;28;20649;-66
2022/09/15 03:32:22;;;;;;;9.32;4.03;;;;;;;;;;5046887;28;22688;-65
2022/09/15 03:34:47;;;;;;;8.75;4.60;;;;;;;;;;5041812;28;20201;-65
2022/09/15 03:37:13;;;;;;;8.60;4.07;;;;;;;;;;5042454;28;20207;-65
2022/09/15 03:39:38;;;;;;;6.47;4.03;;;;;;;;;;5040457;28;20268;-65
2022/09/15 03:42:04;;;;;;;6.40;3.90;;;;;;;;;;5044944;28;20232;-66
2022/09/15 03:44:29;;;;;;;7.65;4.38;;;;;;;;;;5039645;28;20212;-66
2022/09/15 03:46:55;;;;;;;7.55;4.03;;;;;;;;;;5052315;28;20165;-65
2022/09/15 03:49:20;;;;;;;7.95;4.22;;;;;;;;;;5057835;28;20177;-65
2022/09/15 03:51:46;;;;;;;7.15;4.47;;;;;;;;;;5050553;28;20188;-65
2022/09/15 03:54:11;;;;;;;6.18;4.28;;;;;;;;;;5045096;28;20232;-65
2022/09/15 03:56:36;;;;;;;11.45;4.70;;;;;;;;;;5046677;28;20201;-66
2022/09/15 03:59:04;;;;;;;8.40;4.45;;;;;;;;;;5047741;28;20204;-66
2022/09/15 04:01:30;;;;;;;7.78;4.32;;;;;;;;;;5044196;28;20196;-66
2022/09/15 04:03:56;;;;;;;7.05;4.55;;;;;;;;;;5041925;28;20609;-66
2022/09/15 04:06:23;;;;;;;6.07;4.40;;;;;;;;;;5045138;28;20254;-65
2022/09/15 04:08:49;;;;;;;8.45;4.43;;;;;;;;;;5033693;28;20182;-65
2022/09/15 04:11:16;;;;;;;5.93;4.38;;;;;;;;;;5032714;28;20397;-66
2022/09/15 04:13:42;;;;;;;6.00;4.00;;;;;;;;;;5030382;28;20461;-65
2022/09/15 04:16:10;;;;;;;5.65;3.55;;;;;;;;;;5044914;28;20689;-65
2022/09/15 04:18:35;;;;;;;4.50;3.80;;;;;;;;;;5065383;28;20201;-65
2022/09/15 04:21:04;;;;;;;7.93;3.92;;;;;;;;;;5039394;28;20301;-65
2022/09/15 04:23:30;;;;;;;9.38;3.60;;;;;;;;;;5032069;28;20308;-65
2022/09/15 04:25:57;;;;;;;4.82;3.95;;;;;;;;;;5033976;28;20629;-65
2022/09/15 04:28:24;;;;;;;6.22;3.15;;;;;;;;;;5032269;28;20224;-65
2022/09/15 04:30:51;;;;;;;6.68;3.75;;;;;;;;;;5034918;28;20188;-65
2022/09/15 04:33:17;;;;;;;8.60;2.78;;;;;;;;;;5035116;28;20234;-66
2022/09/15 04:35:42;;;;;;;6.35;3.33;;;;;;;;;;5033053;28;20182;-65
2022/09/15 04:38:07;;;;;;;6.63;2.88;;;;;;;;;;5031341;28;20205;-65
2022/09/15 04:40:33;;;;;;;7.80;3.10;;;;;;;;;;5031034;28;20182;-65
2022/09/15 04:42:58;;;;;;;6.45;2.55;;;;;;;;;;5036183;28;20273;-65
2022/09/15 04:45:24;;;;;;;7.10;2.70;;;;;;;;;;5041271;28;20616;-65
2022/09/15 04:47:50;;;;;;;15.60;2.95;;;;;;;;;;5036115;28;20180;-65
2022/09/15 04:50:16;;;;;;;5.85;2.45;;;;;;;;;;5039187;28;20185;-65
2022/09/15 04:52:41;;;;;;;10.00;3.00;;;;;;;;;;5038844;28;20247;-65
2022/09/15 04:55:07;;;;;;;7.72;3.00;;;;;;;;;;5043991;28;20197;-65
2022/09/15 04:57:33;;;;;;;8.52;3.03;;;;;;;;;;5044143;28;20209;-65
2022/09/15 04:59:58;;;;;;;7.70;2.38;;;;;;;;;;5046676;28;20190;-65
2022/09/15 05:02:23;;;;;;;4.47;2.25;;;;;;;;;;5043506;28;20214;-65
2022/09/15 05:04:50;;;;;;;6.43;2.20;;;;;;;;;;5045404;28;20857;-65
2022/09/15 05:07:16;;;;;;;7.78;2.33;;;;;;;;;;5039747;28;20631;-66
2022/09/15 05:09:41;;;;;;;10.27;2.53;;;;;;;;;;5046296;28;20467;-66
2022/09/15 05:12:07;;;;;;;7.88;2.22;;;;;;;;;;5040040;28;20190;-66
2022/09/15 05:14:32;;;;;;;6.03;1.95;;;;;;;;;;5041175;28;20247;-66
2022/09/15 05:16:57;;;;;;;6.25;2.33;;;;;;;;;;5032244;28;20232;-66
2022/09/15 05:19:23;;;;;;;7.22;2.33;;;;;;;;;;5040282;28;20194;-66
2022/09/15 05:21:48;;;;;;;7.55;2.00;;;;;;;;;;5037606;28;20186;-66
2022/09/15 05:24:13;;;;;;;5.72;2.20;;;;;;;;;;5038718;28;20201;-66
2022/09/15 05:26:40;;;;;;;6.30;1.90;;;;;;;;;;5035979;28;20225;-66
2022/09/15 05:29:05;;;;;;;6.30;2.15;;;;;;;;;;5034077;28;20186;-66
2022/09/15 05:31:32;;;;;;;4.38;2.28;;;;;;;;;;5043179;28;20706;-66
2022/09/15 05:34:03;;;;;;;6.40;2.03;;;;;;;;;;5036881;28;20188;-66
2022/09/15 05:36:28;;;;;;;5.43;2.35;;;;;;;;;;5042053;28;20206;-66
2022/09/15 05:38:55;;;;;;;5.55;1.88;;;;;;;;;;5054717;28;20174;-66
2022/09/15 05:41:21;;;;;;;9.77;2.20;;;;;;;;;;5048134;28;20219;-66
2022/09/15 05:43:49;;;;;;;8.00;2.05;;;;;;;;;;5040566;28;20265;-67
2022/09/15 05:46:16;;;;;;;7.90;1.77;;;;;;;;;;5048954;28;20181;-66
2022/09/15 05:48:41;;;;;;;9.68;2.05;;;;;;;;;;5045869;28;20186;-66
2022/09/15 05:51:07;;;;;;;8.00;2.40;;;;;;;;;;5050246;28;20472;-66
2022/09/15 05:53:34;;;;;;;7.18;2.17;;;;;;;;;;5049119;28;20251;-66
2022/09/15 05:56:02;;;;;;;8.05;2.15;;;;;;;;;;5044215;28;20209;-66
2022/09/15 05:58:28;;;;;;;7.85;1.70;;;;;;;;;;5050556;28;20662;-66
2022/09/15 06:00:54;;;;;;;7.90;2.33;;;;;;;;;;5049331;28;20176;-66
2022/09/15 06:03:20;;;;;;;6.30;1.73;;;;;;;;;;5042372;28;20186;-66
2022/09/15 06:05:46;;;;;;;7.03;1.63;;;;;;;;;;5043492;28;20258;-66
2022/09/15 06:08:12;;;;;;;8.25;1.70;;;;;;;;;;5031209;28;20273;-66
2022/09/15 06:10:38;;;;;;;7.55;2.38;;;;;;;;;;5033062;28;20219;-66
2022/09/15 06:13:03;;;;;;;3.65;1.60;;;;;;;;;;5031795;28;20689;-66
2022/09/15 06:15:30;;;;;;;8.45;1.85;;;;;;;;;;5029930;28;20204;-66
2022/09/15 06:17:55;;;;;;;5.80;1.42;;;;;;;;;;5029473;28;20322;-66
2022/09/15 06:20:21;;;;;;;6.53;1.50;;;;;;;;;;5038022;28;20351;-66
2022/09/15 06:22:46;;;;;;;4.43;1.40;;;;;;;;;;5042098;28;20185;-66
2022/09/15 06:25:12;;;;;;;4.40;1.52;;;;;;;;;;5027689;28;20186;-66
2022/09/15 06:27:38;;;;;;;6.93;1.30;;;;;;;;;;5027854;28;20489;-66
2022/09/15 06:30:05;;;;;;;5.97;1.67;;;;;;;;;;5037622;28;20173;-65
2022/09/15 06:32:30;;;;;;;8.85;1.48;;;;;;;;;;5034167;28;20202;-65
2022/09/15 06:34:55;;;;;;;7.38;1.50;;;;;;;;;;5032524;28;20708;-65
2022/09/15 06:37:21;;;;;;;8.95;1.90;;;;;;;;;;5042724;28;20288;-66
2022/09/15 06:39:46;;;;;;;7.03;1.50;;;;;;;;;;5042159;28;20180;-66
2022/09/15 06:42:11;;;;;;;9.23;2.03;;;;;;;;;;5035143;28;20197;-65
2022/09/15 06:44:37;;;;;;;3.80;1.13;;;;;;;;;;5034377;28;20509;-66
2022/09/15 06:47:03;;;;;;;6.32;1.48;;;;;;;;;;5031843;28;20765;-66
2022/09/15 06:49:28;;;;;;;8.75;1.35;;;;;;;;;;5030563;28;20174;-65
2022/09/15 06:51:54;;;;;;;8.35;1.38;;;;;;;;;;5034456;28;20616;-65
2022/09/15 06:54:19;;;;;;;4.75;1.15;;;;;;;;;;5040717;28;20192;-65
2022/09/15 06:56:44;;;;;;;7.10;1.38;;;;;;;;;;5036461;28;20217;-66
2022/09/15 06:59:11;;;;;;;9.88;1.83;;;;;;;;;;5035805;28;20189;-65
2022/09/15 07:01:37;;;;;;;4.25;1.27;;;;;;;;;;5038564;28;20182;-65
2022/09/15 07:04:05;;;;;;;4.32;1.30;;;;;;;;;;5038214;28;20584;-65
2022/09/15 07:06:32;;;;;;;8.18;1.40;;;;;;;;;;5032892;28;20178;-65
2022/09/15 07:08:58;;;;;;;5.32;1.10;;;;;;;;;;5042769;28;20204;-65
2022/09/15 07:11:24;;;;;;;8.57;1.55;;;;;;;;;;5048485;28;20174;-64
2022/09/15 07:13:50;;;;;;;6.07;1.35;;;;;;;;;;5053799;28;20663;-65
2022/09/15 07:16:17;;;;;;;5.82;1.02;;;;;;;;;;5038960;28;20230;-66
2022/09/15 07:18:43;;;;;;;6.38;1.17;;;;;;;;;;5039136;28;20197;-66
2022/09/15 07:21:14;;;;;;;6.20;1.20;;;;;;;;;;5038748;28;20182;-66
2022/09/15 07:23:40;;;;;;;6.43;1.00;;;;;;;;;;5032191;28;20182;-65
2022/09/15 07:26:09;;;;;;;7.80;1.27;;;;;;;;;;5033146;28;20232;-66
2022/09/15 07:28:35;;;;;;;8.73;1.15;;;;;;;;;;5041102;28;20223;-65
2022/09/15 07:31:00;;;;;;;9.07;1.50;;;;;;;;;;5039099;28;20220;-66
2022/09/15 07:33:26;;;;;;;7.85;1.60;;;;;;;;;;5039484;28;20236;-66
2022/09/15 07:35:51;;;;;;;5.00;1.00;;;;;;;;;;5028772;28;20185;-65
2022/09/15 07:38:16;;;;;;;7.38;1.40;;;;;;;;;;5030050;28;20336;-65
2022/09/15 07:40:42;;;;;;;3.10;1.17;;;;;;;;;;5040166;28;20186;-65
2022/09/15 07:43:07;;;;;;;9.93;1.20;;;;;;;;;;5029278;28;20178;-65
2022/09/15 07:45:34;;;;;;;9.80;0.80;;;;;;;;;;5031127;28;20626;-65
2022/09/15 07:47:59;;;;;;;7.07;1.50;;;;;;;;;;5029721;28;20404;-65
2022/09/15 07:50:25;;;;;;;4.78;1.27;;;;;;;;;;5033582;28;20290;-64
2022/09/15 07:52:53;;;;;;;9.35;1.35;;;;;;;;;;5032905;28;20275;-65
2022/09/15 07:55:18;;;;;;;8.13;1.50;;;;;;;;;;5034829;28;20247;-65
2022/09/15 07:57:44;;;;;;;6.55;0.98;;;;;;;;;;5029816;28;20233;-64
2022/09/15 08:00:10;;;;;;;9.88;1.67;;;;;;;;;;5032388;28;20309;-65
2022/09/15 08:02:35;;;;;;;8.40;1.00;;;;;;;;;;5030515;28;20189;-66
2022/09/15 08:05:00;;;;;;;8.00;1.30;;;;;;;;;;5041158;28;20186;-65
2022/09/15 08:07:26;;;;;;;6.57;1.30;;;;;;;;;;5039758;28;20264;-65
2022/09/15 08:09:51;;;;;;;5.60;1.00;;;;;;;;;;5028977;28;20202;-64
2022/09/15 08:12:17;;;;;;;5.63;0.85;;;;;;;;;;5031967;28;20210;-64
2022/09/15 08:14:43;;;;;;;3.85;1.17;;;;;;;;;;5032895;28;20206;-65
2022/09/15 08:17:08;;;;;;;9.82;1.50;;;;;;;;;;5033731;28;20210;-65
2022/09/15 08:19:34;;;;;;;11.52;1.35;;;;;;;;;;5028248;28;20268;-65
2022/09/15 08:22:00;;;;;;;5.88;1.05;;;;;;;;;;5029201;28;20269;-64
2022/09/15 08:24:26;;;;;;;7.57;1.20;;;;;;;;;;5030426;28;20268;-64
2022/09/15 08:26:52;;;;;;;5.57;1.13;;;;;;;;;;5035306;28;20271;-66
2022/09/15 08:29:18;;;;;;;6.88;1.00;;;;;;;;;;5050767;28;20189;-64
2022/09/15 08:31:44;;;;;;;10.65;1.08;;;;;;;;;;5046388;28;20213;-65
2022/09/15 08:34:12;;;;;;;6.45;0.80;;;;;;;;;;5040500;28;20181;-64
2022/09/15 08:36:37;;;;;;;3.50;0.85;;;;;;;;;;5035782;28;20205;-64
2022/09/15 08:39:03;;;;;;;4.25;0.70;;;;;;;;;;5034539;28;20261;-64
2022/09/15 08:41:34;;;;;;;4.20;1.00;;;;;;;;;;5036124;28;20185;-64
2022/09/15 08:44:23;;;;;;;4.82;0.52;;;;;;;;;;5033474;28;20181;-65
2022/09/15 08:47:09;;;;;;;5.50;0.60;;;;;;;;;;5038899;28;20182;-65
2022/09/15 08:50:02;;;;;;;4.25;0.70;;;;;;;;;;5051946;28;20624;-66
2022/09/15 08:52:37;;;;;;;4.65;1.10;;;;;;;;;;5033370;28;20197;-65
2022/09/15 08:55:25;;;;;;;3.83;0.80;;;;;;;;;;5031021;28;20165;-64
2022/09/15 08:57:54;;;;;;;5.35;0.70;;;;;;;;;;5035857;28;20422;-65
2022/09/15 09:00:20;;;;;;;3.00;0.77;;;;;;;;;;5036630;28;20224;-64
2022/09/15 09:03:05;;;;;;;3.53;0.77;;;;;;;;;;5032926;28;20178;-65
2022/09/15 09:05:46;;;;;;;5.38;0.60;;;;;;;;;;5031504;28;20693;-65
2022/09/15 09:08:33;;;;;;;4.50;0.50;;;;;;;;;;5031876;28;20518;-64
2022/09/15 09:11:41;;;;;;;4.57;0.52;;;;;;;;;;5033567;28;20268;-65
2022/09/15 09:14:33;;;;;;;3.35;0.90;;;;;;;;;;5049479;28;20193;-65
2022/09/15 09:17:01;;;;;;;3.80;0.68;;;;;;;;;;5031439;28;20247;-64
2022/09/15 09:19:47;;;;;;;3.85;0.70;;;;;;;;;;5049791;28;20192;-64
2022/09/15 09:22:17;;;;;;;3.58;0.80;;;;;;;;;;5035549;28;20571;-64
2022/09/15 09:24:46;;;;;;;6.90;0.80;;;;;;;;;;5044806;28;20185;-64
2022/09/15 09:27:17;;;;;;;4.57;0.90;;;;;;;;;;5029898;28;20222;-64
2022/09/15 09:29:48;;;;;;;8.13;1.23;;;;;;;;;;5035972;28;20190;-64
2022/09/15 09:32:26;;;;;;;4.70;0.95;;;;;;;;;;5042019;28;20579;-65
2022/09/15 09:35:03;;;;;;;5.45;1.20;;;;;;;;;;5043101;28;20181;-64
2022/09/15 09:37:29;;;;;;;4.35;0.65;;;;;;;;;;5039482;28;20244;-64
2022/09/15 09:39:55;;;;;;;5.35;0.88;;;;;;;;;;5035687;28;20213;-64
2022/09/15 09:42:28;;;;;;;4.72;0.88;;;;;;;;;;5038643;28;20268;-64
2022/09/15 09:44:54;;;;;;;4.78;0.60;;;;;;;;;;5030489;28;20186;-64
2022/09/15 09:47:20;;;;;;;3.55;0.52;;;;;;;;;;5035357;28;20259;-64
2022/09/15 09:49:47;;;;;;;8.05;0.73;;;;;;;;;;5038590;28;20192;-65
2022/09/15 09:52:30;;;;;;;3.95;1.10;;;;;;;;;;5035721;28;20560;-64
2022/09/15 09:55:00;;;;;;;4.85;0.98;;;;;;;;;;5038339;28;20217;-65
2022/09/15 09:57:30;;;;;;;9.50;0.77;;;;;;;;;;5038257;28;20209;-69
2022/09/15 09:59:56;;;;;;;4.93;0.88;;;;;;;;;;5050274;28;20178;-69
2022/09/15 10:02:24;;;;;;;7.05;1.05;;;;;;;;;;5036940;28;20186;-66
2022/09/15 10:05:01;;;;;;;2.67;0.57;;;;;;;;;;5031737;28;20285;-65
2022/09/15 10:07:26;;;;;;;3.75;0.98;;;;;;;;;;5043921;28;20197;-65
2022/09/15 10:09:58;;;;;;;3.97;0.90;;;;;;;;;;5042011;28;20205;-66
2022/09/15 10:12:39;;;;;;;6.10;0.70;;;;;;;;;;5049403;28;20184;-65
2022/09/15 10:15:18;;;;;;;3.35;0.80;;;;;;;;;;5063783;28;20362;-65
2022/09/15 10:17:45;;;;;;;2.53;0.55;;;;;;;;;;5045929;28;20574;-67
2022/09/15 10:20:27;;;;;;;5.72;0.77;;;;;;;;;;5058442;28;20181;-65
2022/09/15 10:23:01;;;;;;;4.85;0.90;;;;;;;;;;5038804;28;20189;-65
2022/09/15 10:25:30;;;;;;;3.30;0.80;;;;;;;;;;5051581;28;20312;-65
2022/09/15 10:28:08;;;;;;;4.95;0.80;;;;;;;;;;5038616;28;20190;-65
2022/09/15 10:30:35;;;;;;;4.30;0.77;;;;;;;;;;5040722;28;20193;-65
2022/09/15 10:33:23;;;;;;;3.35;0.65;;;;;;;;;;5030788;28;20217;-65
2022/09/15 10:35:50;;;;;;;6.82;0.80;;;;;;;;;;5040454;28;20577;-64
2022/09/15 10:38:30;;;;;;;5.22;0.93;;;;;;;;;;5039218;28;20260;-65
2022/09/15 10:41:20;;;;;;;3.10;0.50;;;;;;;;;;5037912;28;20204;-65
2022/09/15 10:44:01;;;;;;;4.68;1.10;;;;;;;;;;5061768;28;20264;-65
2022/09/15 10:46:30;;;;;;;3.92;1.00;;;;;;;;;;5039941;28;20673;-65
2022/09/15 10:49:21;;;;;;;7.63;1.00;;;;;;;;;;5035419;28;20173;-66
2022/09/15 10:52:10;;;;;;;3.92;1.00;;;;;;;;;;5055040;28;20272;-65
2022/09/15 10:55:07;;;;;;;4.65;0.68;;;;;;;;;;5031957;28;20194;-64
2022/09/15 10:57:54;;;;;;;5.57;1.02;;;;;;;;;;5046347;28;20289;-65
2022/09/15 11:00:22;;;;;;;4.45;0.85;;;;;;;;;;5033900;28;20228;-64
2022/09/15 11:03:09;;;;;;;4.38;0.95;;;;;;;;;;5045076;28;20177;-64
2022/09/15 11:05:47;;;;;;;4.63;0.73;;;;;;;;;;5050047;28;20209;-65
2022/09/15 11:08:25;;;;;;;4.55;0.95;;;;;;;;;;5031928;28;20188;-65
2022/09/15 11:11:04;;;;;;;6.10;0.93;;;;;;;;;;5034956;28;20581;-65
2022/09/15 11:13:32;;;;;;;6.97;1.30;;;;;;;;;;5031758;28;20216;-64
2022/09/15 11:16:02;;;;;;;3.25;0.82;;;;;;;;;;5039912;28;20182;-66
2022/09/15 11:18:48;;;;;;;7.57;0.90;;;;;;;;;;5031658;28;20186;-66
2022/09/15 11:21:36;;;;;;;6.35;0.93;;;;;;;;;;5033945;28;20174;-64
2022/09/15 11:24:25;;;;;;;5.63;1.10;;;;;;;;;;5033231;28;20213;-66
2022/09/15 11:27:10;;;;;;;5.97;0.90;;;;;;;;;;5031951;28;20367;-67
2022/09/15 11:30:00;;;;;;;5.85;1.00;;;;;;;;;;5034690;28;20177;-64
2022/09/15 11:32:35;;;;;;;5.07;0.93;;;;;;;;;;5028823;28;20201;-64
2022/09/15 11:35:40;;;;;;;2.20;0.63;;;;;;;;;;5037379;28;20183;-64
2022/09/15 11:38:20;;;;;;;6.43;1.08;;;;;;;;;;5034722;28;20701;-64
2022/09/15 11:41:17;;;;;;;5.28;0.70;;;;;;;;;;5041478;28;20273;-65
2022/09/15 11:44:13;;;;;;;2.72;0.77;;;;;;;;;;5053649;28;20177;-64
2022/09/15 11:47:01;;;;;;;1.13;0.50;;;;;;;;;;5033574;28;20174;-64
2022/09/15 11:49:34;;;;;;;5.53;0.50;;;;;;;;;;5041125;28;20306;-64
2022/09/15 11:52:13;;;;;;;3.65;0.80;;;;;;;;;;5044407;28;20189;-65
2022/09/15 11:54:47;;;;;;;4.85;0.98;;;;;;;;;;5034526;28;20178;-64
2022/09/15 11:57:20;;;;;;;7.35;0.88;;;;;;;;;;5045165;28;20207;-65
2022/09/15 11:59:50;;;;;;;3.22;0.70;;;;;;;;;;5039619;28;20695;-65
2022/09/15 12:02:41;;;;;;;11.35;1.15;;;;;;;;;;5037982;28;20173;-65
2022/09/15 12:05:19;;;;;;;5.40;0.85;;;;;;;;;;5041532;28;20608;-65
2022/09/15 12:07:49;;;;;;;4.15;0.60;;;;;;;;;;5028869;28;20178;-66
2022/09/15 12:10:20;;;;;;;2.85;0.75;;;;;;;;;;5032131;28;20181;-64
2022/09/15 12:12:46;;;;;;;3.78;0.75;;;;;;;;;;5060465;28;20267;-65
2022/09/15 12:15:15;;;;;;;7.40;0.80;;;;;;;;;;5068574;28;20263;-65
2022/09/15 12:17:48;;;;;;;3.10;0.60;;;;;;;;;;5047662;28;20207;-64
2022/09/15 12:20:25;;;;;;;5.38;0.55;;;;;;;;;;5059042;28;20200;-65
2022/09/15 12:23:10;;;;;;;6.35;0.90;;;;;;;;;;5027851;28;20650;-65
2022/09/15 12:26:04;;;;;;;5.72;0.80;;;;;;;;;;5029264;28;20317;-64
2022/09/15 12:28:53;;;;;;;2.92;0.90;;;;;;;;;;5028067;28;20646;-64
2022/09/15 12:31:36;;;;;;;3.65;0.80;;;;;;;;;;5031047;28;20213;-66
2022/09/15 12:34:23;;;;;;;6.85;1.20;;;;;;;;;;5029645;28;20197;-64
2022/09/15 12:36:53;;;;;;;3.17;0.60;;;;;;;;;;5027744;28;20198;-64
2022/09/15 12:39:35;;;;;;;5.10;0.70;;;;;;;;;;5031615;28;20239;-65
2022/09/15 12:42:17;;;;;;;2.63;0.73;;;;;;;;;;5033903;28;20244;-64
2022/09/15 12:44:55;;;;;;;2.20;0.70;;;;;;;;;;5034344;28;20204;-64
2022/09/15 12:47:33;;;;;;;6.80;0.93;;;;;;;;;;5033180;28;20192;-64
2022/09/15 12:50:14;;;;;;;6.93;0.93;;;;;;;;;;5040900;28;20564;-66
2022/09/15 12:52:57;;;;;;;4.40;1.00;;;;;;;;;;5032360;28;20185;-68
2022/09/15 12:55:27;;;;;;;4.28;0.75;;;;;;;;;;5033019;28;20326;-66
2022/09/15 12:57:56;;;;;;;5.05;0.85;;;;;;;;;;5037586;28;20654;-66
2022/09/15 13:00:29;;;;;;;2.90;0.50;;;;;;;;;;5034169;28;20645;-65
2022/09/15 13:02:55;;;;;;;2.97;0.80;;;;;;;;;;5037052;28;20189;-66
2022/09/15 13:05:45;;;;;;;1.75;0.40;;;;;;;;;;5041211;28;20182;-65
2022/09/15 13:08:35;;;;;;;4.43;0.60;;;;;;;;;;5053393;28;20264;-66
2022/09/15 13:11:08;;;;;;;4.57;0.60;;;;;;;;;;5034831;28;20185;-66
2022/09/15 13:13:57;;;;;;;4.63;0.55;;;;;;;;;;5038147;28;20690;-64
2022/09/15 13:16:31;;;;;;;4.82;0.75;;;;;;;;;;5045913;28;20672;-65
2022/09/15 13:19:12;;;;;;;4.75;0.63;;;;;;;;;;5048158;28;20640;-64
2022/09/15 13:21:42;;;;;;;3.35;0.70;;;;;;;;;;5037422;28;20181;-65
2022/09/15 13:24:18;;;;;;;5.32;0.65;;;;;;;;;;5036962;28;20197;-66
2022/09/15 13:26:50;;;;;;;3.15;0.60;;;;;;;;;;5053101;28;20223;-66
2022/09/15 13:29:16;;;;;;;5.45;0.70;;;;;;;;;;5060123;28;20177;-66
2022/09/15 13:31:58;;;;;;;2.30;0.43;;;;;;;;;;5053435;28;20563;-66
2022/09/15 13:35:01;;;;;;;3.05;0.50;;;;;;;;;;5031923;28;20414;-64
2022/09/15 13:37:34;;;;;;;3.72;0.50;;;;;;;;;;5036405;28;20209;-65
2022/09/15 13:40:32;;;;;;;2.20;0.40;;;;;;;;;;5035407;28;20186;-65
2022/09/15 13:43:10;;;;;;;2.00;0.40;;;;;;;;;;5031627;28;20810;-65
2022/09/15 13:45:49;;;;;;;5.13;0.70;;;;;;;;;;5032525;28;20209;-68
2022/09/15 13:48:49;;;;;;;2.33;0.52;;;;;;;;;;5032221;28;20178;-67
2022/09/15 13:51:33;;;;;;;6.75;0.75;;;;;;;;;;5033118;28;20599;-65
2022/09/15 13:54:05;;;;;;;14.45;2.20;;;;;;;;;;5033209;28;20257;-65
2022/09/15 13:56:37;;;;;;;7.35;0.85;;;;;;;;;;5036900;28;20281;-68
2022/09/15 13:59:05;;;;;;;4.07;0.80;;;;;;;;;;5037498;28;20222;-68
2022/09/15 14:01:37;;;;;;;6.32;1.00;;;;;;;;;;5034230;28;20178;-69
2022/09/15 14:04:09;;;;;;;5.10;0.90;;;;;;;;;;5033483;28;20178;-70
2022/09/15 14:06:39;;;;;;;3.30;0.60;;;;;;;;;;5046613;28;20177;-68
2022/09/15 14:09:14;;;;;;;2.55;0.82;;;;;;;;;;5033830;28;20670;-69
2022/09/15 14:11:40;;;;;;;6.20;0.68;;;;;;;;;;5042405;28;20191;-66
2022/09/15 14:14:10;;;;;;;4.15;0.68;;;;;;;;;;5034751;28;20182;-68
2022/09/15 14:16:37;;;;;;;4.57;0.68;;;;;;;;;;5034755;28;20232;-66
2022/09/15 14:19:27;;;;;;;4.40;0.90;;;;;;;;;;4338433;28;10000418;-65
2022/09/15 14:21:53;;;;;;;3.60;0.70;;;;;;;;;;5035618;28;20188;-66
2022/09/15 14:24:27;;;;;;;1.25;0.60;;;;;;;;;;5033651;28;20194;-64
2022/09/15 14:26:53;;;;;;;4.10;0.70;;;;;;;;;;5033562;28;20288;-65
2022/09/15 14:29:23;;;;;;;3.67;0.50;;;;;;;;;;5032902;28;21759;-65
2022/09/15 14:31:48;;;;;;;0.88;0.43;;;;;;;;;;5040871;28;20288;-65
2022/09/15 14:34:21;;;;;;;2.13;0.45;;;;;;;;;;5048181;28;20271;-66
2022/09/15 14:37:03;;;;;;;2.50;0.40;;;;;;;;;;5029955;28;20544;-65
2022/09/15 14:39:29;;;;;;;4.00;0.80;;;;;;;;;;5049639;28;20194;-68
2022/09/15 14:41:54;;;;;;;2.25;0.70;;;;;;;;;;5052226;28;20572;-66
2022/09/15 14:44:27;;;;;;;3.17;0.75;;;;;;;;;;5036951;28;20182;-66
2022/09/15 14:46:54;;;;;;;6.10;0.80;;;;;;;;;;5039838;28;20524;-67
2022/09/15 14:49:20;;;;;;;3.63;1.00;;;;;;;;;;5050308;28;20204;-68
2022/09/15 14:51:48;;;;;;;5.40;0.60;;;;;;;;;;5058438;28;20185;-66
2022/09/15 14:54:27;;;;;;;1.90;0.60;;;;;;;;;;5044680;28;20182;-64
2022/09/15 14:56:57;;;;;;;3.95;0.77;;;;;;;;;;5036515;28;20214;-65
2022/09/15 14:59:33;;;;;;;3.88;0.60;;;;;;;;;;5030109;28;20179;-65
2022/09/15 15:02:16;;;;;;;3.63;0.65;;;;;;;;;;5029003;28;20212;-67
2022/09/15 15:04:49;;;;;;;4.15;0.60;;;;;;;;;;5043488;28;20278;-67
2022/09/15 15:07:24;;;;;;;2.35;0.57;;;;;;;;;;4691809;28;10000407;-66
2022/09/15 15:09:57;;;;;;;5.03;0.50;;;;;;;;;;5041312;28;20442;-64
2022/09/15 15:12:44;;;;;;;2.55;0.45;;;;;;;;;;5044648;28;20193;-64